Big Bear Station Historical Data
Daily Summary for March 30, 2019 Units:  English    Metric   Both
Next Day »
Daily Weekly Monthly Yearly Custom
  High: Low: Average:
Temperature: 57.7 °F 25.3 °F 39.9 °F
Dew Point: 30.0 °F 18.9 °F 23.8 °F
Humidity: 89% 27% 57%
Wind Speed: 6.8mph 0.0mph 1.2mph
Wind Gust: -999.0mph - -
Wind- - SSW
Pressure: 23.56 in 23.51 in -
Precipitation: 0.00 in    
Historical Graphs
 
 
Tabular Data for March 30, 2019
Time Temperature Dew Point Pressure Wind Wind Speed Wind Gust Humidity Rainfall Rate (Hourly)
00:11 29.3 °F 22.0 °F 23.55 in Calm   -999.0 mph 74% 0.00 in
00:27 28.9 °F 22.0 °F 23.55 in Calm   -999.0 mph 75% 0.00 in
00:42 28.8 °F 22.2 °F 23.56 in Calm   -999.0 mph 76% 0.00 in
00:57 28.4 °F 22.7 °F 23.55 in Calm   -999.0 mph 79% 0.00 in
01:12 28.2 °F 22.5 °F 23.55 in Calm   -999.0 mph 79% 0.00 in
01:27 27.7 °F 22.3 °F 23.54 in Calm   -999.0 mph 80% 0.00 in
01:43 27.9 °F 22.8 °F 23.55 in Calm   -999.0 mph 81% 0.00 in
01:58 27.7 °F 22.6 °F 23.55 in Calm   -999.0 mph 81% 0.00 in
02:13 27.5 °F 23.3 °F 23.54 in Calm   -999.0 mph 84% 0.00 in
02:29 27.1 °F 23.2 °F 23.54 in Calm   -999.0 mph 85% 0.00 in
02:44 27.1 °F 23.2 °F 23.54 in Calm   -999.0 mph 85% 0.00 in
02:59 27.0 °F 23.1 °F 23.53 in Calm   -999.0 mph 85% 0.00 in
03:14 27.0 °F 23.4 °F 23.53 in Calm   -999.0 mph 86% 0.00 in
03:30 26.4 °F 23.1 °F 23.53 in Calm   -999.0 mph 87% 0.00 in
03:45 26.1 °F 21.9 °F 23.53 in Calm   -999.0 mph 84% 0.00 in
04:00 25.9 °F 21.2 °F 23.53 in Calm   -999.0 mph 82% 0.00 in
04:15 26.1 °F 21.9 °F 23.53 in Calm   -999.0 mph 84% 0.00 in
04:30 26.1 °F 22.5 °F 23.54 in Calm   -999.0 mph 86% 0.00 in
04:46 25.5 °F 21.9 °F 23.54 in Calm   -999.0 mph 86% 0.00 in
05:01 25.9 °F 22.6 °F 23.54 in Calm   -999.0 mph 87% 0.00 in
05:16 25.9 °F 22.6 °F 23.54 in Calm   -999.0 mph 87% 0.00 in
05:31 25.9 °F 23.1 °F 23.55 in Calm   -999.0 mph 89% 0.00 in
05:46 25.7 °F 22.6 °F 23.54 in Calm   -999.0 mph 88% 0.00 in
06:02 25.9 °F 22.8 °F 23.54 in Calm   -999.0 mph 88% 0.00 in
06:17 25.3 °F 22.0 °F 23.54 in Calm   -999.0 mph 87% 0.00 in
06:32 25.9 °F 22.3 °F 23.54 in Calm   -999.0 mph 86% 0.00 in
06:47 26.1 °F 20.8 °F 23.54 in Calm   -999.0 mph 80% 0.00 in
07:02 26.8 °F 20.9 °F 23.54 in Calm   -999.0 mph 78% 0.00 in
07:18 26.6 °F 21.0 °F 23.54 in Calm   -999.0 mph 79% 0.00 in
07:33 28.0 °F 20.8 °F 23.54 in Calm   -999.0 mph 74% 0.00 in
07:48 28.8 °F 20.6 °F 23.55 in Calm   -999.0 mph 71% 0.00 in
08:03 29.1 °F 20.5 °F 23.55 in Calm   -999.0 mph 70% 0.00 in
08:19 30.0 °F 22.1 °F 23.55 in Calm   -999.0 mph 72% 0.00 in
08:34 33.8 °F 22.9 °F 23.55 in Calm   -999.0 mph 64% 0.00 in
08:49 38.3 °F 20.3 °F 23.55 in Calm   -999.0 mph 48% 0.00 in
09:04 39.2 °F 19.1 °F 23.55 in Calm   -999.0 mph 44% 0.00 in
09:19 40.8 °F 18.9 °F 23.55 in ENE 5.3 mph -999.0 mph 41% 0.00 in
09:35 41.7 °F 19.7 °F 23.55 in SW 2.7 mph -999.0 mph 41% 0.00 in
09:50 42.4 °F 19.2 °F 23.56 in WSW 1.7 mph -999.0 mph 39% 0.00 in
10:05 43.5 °F 19.6 °F 23.56 in Calm   -999.0 mph 38% 0.00 in
10:20 44.6 °F 19.9 °F 23.56 in SW 1.7 mph -999.0 mph 37% 0.00 in
10:35 46.0 °F 21.2 °F 23.56 in NW 6.3 mph -999.0 mph 37% 0.00 in
10:51 47.7 °F 22.0 °F 23.56 in NNW 3.7 mph -999.0 mph 36% 0.00 in
11:06 49.6 °F 23.7 °F 23.56 in WNW 6.8 mph -999.0 mph 36% 0.00 in
11:21 51.3 °F 23.1 °F 23.55 in Calm   -999.0 mph 33% 0.00 in
11:36 52.3 °F 22.5 °F 23.55 in Calm   -999.0 mph 31% 0.00 in
11:52 53.8 °F 25.3 °F 23.55 in NNE 1.7 mph -999.0 mph 33% 0.00 in
12:07 53.1 °F 24.0 °F 23.55 in ENE 1.7 mph -999.0 mph 32% 0.00 in
12:22 54.1 °F 24.9 °F 23.55 in ENE 1.7 mph -999.0 mph 32% 0.00 in
12:37 55.4 °F 26.8 °F 23.55 in East 3.2 mph -999.0 mph 33% 0.00 in
12:52 55.8 °F 26.4 °F 23.54 in NNW 4.7 mph -999.0 mph 32% 0.00 in
13:08 55.4 °F 26.8 °F 23.54 in Calm   -999.0 mph 33% 0.00 in
13:23 55.9 °F 24.1 °F 23.54 in East 3.2 mph -999.0 mph 29% 0.00 in
13:38 56.8 °F 24.9 °F 23.54 in NNE 4.2 mph -999.0 mph 29% 0.00 in
13:53 57.0 °F 25.9 °F 23.53 in WNW 5.3 mph -999.0 mph 30% 0.00 in
14:08 56.8 °F 23.2 °F 23.52 in WNW 4.7 mph -999.0 mph 27% 0.00 in
14:24 57.4 °F 25.4 °F 23.52 in NNW 3.7 mph -999.0 mph 29% 0.00 in
14:39 57.7 °F 24.8 °F 23.52 in NNW 4.7 mph -999.0 mph 28% 0.00 in
14:54 56.3 °F 25.2 °F 23.52 in NNE 3.2 mph -999.0 mph 30% 0.00 in
15:09 56.8 °F 28.7 °F 23.52 in North 4.7 mph -999.0 mph 34% 0.00 in
15:24 56.1 °F 28.1 °F 23.52 in NNE 3.2 mph -999.0 mph 34% 0.00 in
15:40 55.9 °F 30.0 °F 23.51 in NNW 4.7 mph -999.0 mph 37% 0.00 in
15:55 55.4 °F 28.2 °F 23.52 in NW 4.7 mph -999.0 mph 35% 0.00 in
16:10 54.3 °F 26.5 °F 23.52 in NNE 2.7 mph -999.0 mph 34% 0.00 in
16:25 54.0 °F 26.2 °F 23.52 in NW 3.2 mph -999.0 mph 34% 0.00 in
16:40 53.8 °F 24.6 °F 23.51 in NE 3.2 mph -999.0 mph 32% 0.00 in
16:56 53.4 °F 26.4 °F 23.51 in WSW 1.7 mph -999.0 mph 35% 0.00 in
17:11 54.3 °F 27.2 °F 23.51 in NNW 4.2 mph -999.0 mph 35% 0.00 in
17:26 55.9 °F 26.5 °F 23.52 in NE 2.2 mph -999.0 mph 32% 0.00 in
17:41 56.8 °F 26.5 °F 23.52 in NW 1.1 mph -999.0 mph 31% 0.00 in
17:57 51.8 °F 28.8 °F 23.52 in NW 4.2 mph -999.0 mph 41% 0.00 in
18:12 49.8 °F 28.8 °F 23.52 in NW 2.2 mph -999.0 mph 44% 0.00 in
18:28 49.3 °F 24.7 °F 23.52 in NW 2.7 mph -999.0 mph 38% 0.00 in
18:43 48.0 °F 28.2 °F 23.52 in Calm   -999.0 mph 46% 0.00 in
18:58 46.6 °F 29.4 °F 23.53 in Calm   -999.0 mph 51% 0.00 in
19:13 45.3 °F 26.2 °F 23.53 in Calm   -999.0 mph 47% 0.00 in
19:28 43.9 °F 25.0 °F 23.54 in Calm   -999.0 mph 47% 0.00 in
19:44 42.3 °F 26.8 °F 23.54 in Calm   -999.0 mph 54% 0.00 in
19:59 41.4 °F 26.4 °F 23.54 in Calm   -999.0 mph 55% 0.00 in
20:14 40.3 °F 25.4 °F 23.55 in Calm   -999.0 mph 55% 0.00 in
20:29 39.6 °F 24.8 °F 23.55 in Calm   -999.0 mph 55% 0.00 in
20:44 38.7 °F 23.5 °F 23.55 in Calm   -999.0 mph 54% 0.00 in
21:00 37.8 °F 23.9 °F 23.56 in Calm   -999.0 mph 57% 0.00 in
21:15 36.9 °F 24.3 °F 23.56 in Calm   -999.0 mph 60% 0.00 in
21:30 36.0 °F 24.2 °F 23.56 in Calm   -999.0 mph 62% 0.00 in
21:45 35.4 °F 24.1 °F 23.56 in Calm   -999.0 mph 63% 0.00 in
22:01 34.9 °F 24.3 °F 23.56 in Calm   -999.0 mph 65% 0.00 in
22:16 34.5 °F 24.7 °F 23.56 in Calm   -999.0 mph 67% 0.00 in
22:31 34.2 °F 25.1 °F 23.55 in Calm   -999.0 mph 69% 0.00 in
22:46 33.3 °F 23.5 °F 23.56 in Calm   -999.0 mph 67% 0.00 in
23:01 32.9 °F 23.8 °F 23.56 in Calm   -999.0 mph 69% 0.00 in
23:17 32.2 °F 23.9 °F 23.56 in Calm   -999.0 mph 71% 0.00 in
23:32 32.2 °F 24.5 °F 23.56 in Calm   -999.0 mph 73% 0.00 in
23:48 32.2 °F 24.8 °F 23.56 in Calm   -999.0 mph 74% 0.00 in
Big Bear CA Weather